createdAt,value
2023-05-09T00:01:14.325Z,96376.16
2023-05-09T00:03:43.143Z,96356.25
2023-05-09T00:06:10.041Z,96368.34
2023-05-09T00:08:39.405Z,96366.88
2023-05-09T00:11:08.435Z,96373.09
2023-05-09T00:13:35.987Z,96359.13
2023-05-09T00:16:07.674Z,96353.13
2023-05-09T00:18:36.900Z,96363.75
2023-05-09T00:21:06.282Z,96369.03
2023-05-09T00:23:33.039Z,96372.53
2023-05-09T00:25:59.934Z,96366.34
2023-05-09T00:28:31.594Z,96377.78
2023-05-09T00:30:58.757Z,96359.63
2023-05-09T00:33:28.169Z,96360.63
2023-05-09T00:35:57.353Z,96370.78
2023-05-09T00:38:24.341Z,96336.91
2023-05-09T00:40:51.178Z,96348.00
2023-05-09T00:43:23.322Z,96372.53
2023-05-09T00:45:50.297Z,96351.59
2023-05-09T00:48:17.488Z,96352.50
2023-05-09T00:50:47.797Z,96356.13
2023-05-09T00:53:15.061Z,96353.13
2023-05-09T00:55:44.063Z,96329.22
2023-05-09T00:58:16.090Z,96350.97
2023-05-09T01:00:50.439Z,96343.78
2023-05-09T01:03:23.065Z,96349.31
2023-05-09T01:05:56.976Z,96337.44
2023-05-09T01:08:28.552Z,96342.31
2023-05-09T01:11:07.352Z,96337.06
2023-05-09T01:13:36.359Z,96336.97
2023-05-09T01:16:15.607Z,96336.13
2023-05-09T01:18:45.008Z,96328.66
2023-05-09T01:21:17.617Z,96300.84
2023-05-09T01:24:07.568Z,96305.06
2023-05-09T01:26:43.381Z,96323.66
2023-05-09T01:29:36.026Z,96318.38
2023-05-09T01:32:16.187Z,96298.59
2023-05-09T01:34:44.804Z,96330.03
2023-05-09T01:37:16.532Z,96324.22
2023-05-09T01:39:50.091Z,96321.94
2023-05-09T01:42:20.863Z,96298.09
2023-05-09T01:44:50.946Z,96316.88
2023-05-09T01:47:22.087Z,96280.50
2023-05-09T01:49:52.171Z,96311.75
2023-05-09T01:52:20.209Z,96299.25
2023-05-09T01:54:48.319Z,96315.69
2023-05-09T01:57:15.290Z,96316.97
2023-05-09T01:59:44.299Z,96318.44
2023-05-09T02:02:14.846Z,96313.06
2023-05-09T02:04:43.608Z,96328.72
2023-05-09T02:07:11.774Z,96317.94
2023-05-09T02:09:41.010Z,96313.41
2023-05-09T02:12:10.122Z,96308.44
2023-05-09T02:14:39.202Z,96286.47
2023-05-09T02:17:11.546Z,96302.00
2023-05-09T02:19:38.370Z,96273.06
2023-05-09T02:22:10.008Z,96290.69
2023-05-09T02:24:37.284Z,96291.41
2023-05-09T02:27:07.977Z,96277.69
2023-05-09T02:29:40.567Z,96266.50
2023-05-09T02:32:16.675Z,96294.94
2023-05-09T02:34:45.542Z,96299.78
2023-05-09T02:37:15.838Z,96288.41
2023-05-09T02:39:47.550Z,96289.91
2023-05-09T02:42:22.208Z,96285.56
2023-05-09T02:44:51.395Z,96285.97
2023-05-09T02:47:23.503Z,96294.66
2023-05-09T02:49:55.050Z,96287.25
2023-05-09T02:52:22.076Z,96277.84
2023-05-09T02:54:49.051Z,96284.19
2023-05-09T02:57:15.957Z,96263.94
2023-05-09T02:59:42.823Z,96277.63
2023-05-09T03:02:16.821Z,96281.88
2023-05-09T03:04:44.302Z,96272.25
2023-05-09T03:07:13.511Z,96268.66
2023-05-09T03:09:42.757Z,96273.63
2023-05-09T03:12:12.739Z,96280.72
2023-05-09T03:14:41.973Z,96274.66
2023-05-09T03:17:17.404Z,96275.94
2023-05-09T03:19:44.720Z,96280.91
2023-05-09T03:22:11.657Z,96277.97
2023-05-09T03:24:47.642Z,96274.03
2023-05-09T03:27:14.528Z,96265.28
2023-05-09T03:29:41.273Z,96281.03
2023-05-09T03:32:10.468Z,96280.41
2023-05-09T03:34:37.218Z,96265.63
2023-05-09T03:37:08.779Z,96287.28
2023-05-09T03:39:39.326Z,96254.63
2023-05-09T03:42:11.006Z,96277.66
2023-05-09T03:44:42.135Z,96270.56
2023-05-09T03:47:08.927Z,96249.13
2023-05-09T03:49:39.537Z,96263.69
2023-05-09T03:52:08.322Z,96263.50
2023-05-09T03:54:36.310Z,96263.50
2023-05-09T03:57:05.718Z,96264.25
2023-05-09T03:59:34.759Z,96282.19
2023-05-09T04:02:01.785Z,96243.75
2023-05-09T04:04:29.667Z,96260.53
2023-05-09T04:06:57.498Z,96254.72
2023-05-09T04:09:28.371Z,96267.81
2023-05-09T04:11:55.811Z,96255.38
2023-05-09T04:14:27.933Z,96272.16
2023-05-09T04:16:54.740Z,96262.56
2023-05-09T04:19:21.538Z,96271.53
2023-05-09T04:21:48.909Z,96262.44
2023-05-09T04:24:15.720Z,96277.75
2023-05-09T04:26:48.518Z,96261.19
2023-05-09T04:29:22.536Z,96287.88
2023-05-09T04:31:55.935Z,96278.91
2023-05-09T04:34:30.754Z,96285.47
2023-05-09T04:37:05.384Z,96269.50
2023-05-09T04:39:32.387Z,96264.66
2023-05-09T04:42:05.972Z,96265.94
2023-05-09T04:44:36.066Z,96272.91
2023-05-09T04:47:09.969Z,96258.84
2023-05-09T04:49:43.958Z,96258.84
2023-05-09T04:52:10.737Z,96243.84
2023-05-09T04:54:37.516Z,96241.75
2023-05-09T04:57:17.128Z,96231.50
2023-05-09T04:59:46.327Z,96242.66
2023-05-09T05:02:15.886Z,96272.25
2023-05-09T05:04:43.269Z,96255.44
2023-05-09T05:07:10.320Z,96271.00
2023-05-09T05:09:37.201Z,96253.13
2023-05-09T05:12:09.299Z,96257.03
2023-05-09T05:14:39.916Z,96246.81
2023-05-09T05:17:12.654Z,96233.56
2023-05-09T05:19:41.941Z,96250.38
2023-05-09T05:22:11.912Z,96243.38
2023-05-09T05:24:41.541Z,96224.28
2023-05-09T05:27:11.795Z,96253.28
2023-05-09T05:29:40.849Z,96231.22
2023-05-09T05:32:10.874Z,96244.16
2023-05-09T05:34:40.356Z,96259.69
2023-05-09T05:37:09.892Z,96254.50
2023-05-09T05:39:39.206Z,96253.97
2023-05-09T05:42:06.362Z,96266.34
2023-05-09T05:44:35.806Z,96263.78
2023-05-09T05:47:05.867Z,96273.72
2023-05-09T05:49:37.526Z,96227.03
2023-05-09T05:52:04.575Z,96257.88
2023-05-09T05:54:36.375Z,96236.66
2023-05-09T05:57:03.190Z,96254.41
2023-05-09T05:59:34.848Z,96257.47
2023-05-09T06:02:04.436Z,96250.56
2023-05-09T06:04:36.547Z,96244.84
2023-05-09T06:07:11.991Z,96243.56
2023-05-09T06:09:43.661Z,96232.97
2023-05-09T06:12:12.006Z,96242.47
2023-05-09T06:14:43.795Z,96234.00
2023-05-09T06:17:16.545Z,96223.41
2023-05-09T06:19:43.470Z,96230.88
2023-05-09T06:22:13.169Z,96222.31
2023-05-09T06:24:42.480Z,96225.53
2023-05-09T06:27:09.297Z,96221.19
2023-05-09T06:29:38.543Z,96221.56
2023-05-09T06:32:05.506Z,96227.00
2023-05-09T06:34:39.694Z,96225.72
2023-05-09T06:39:40.552Z,96224.16
2023-05-09T06:42:14.767Z,96212.91
2023-05-09T06:44:44.630Z,96215.28
2023-05-09T06:47:13.813Z,96159.44
2023-05-09T06:49:45.449Z,96204.22
2023-05-09T06:52:17.074Z,96202.28
2023-05-09T06:54:43.888Z,96197.47
2023-05-09T06:57:15.639Z,96193.16
2023-05-09T06:59:45.012Z,96199.84
2023-05-09T07:02:14.133Z,96195.31
2023-05-09T07:04:46.341Z,96185.91
2023-05-09T07:07:18.679Z,96197.97
2023-05-09T07:09:50.743Z,96192.41
2023-05-09T07:12:27.323Z,96182.44
2023-05-09T07:15:01.409Z,96189.38
2023-05-09T07:17:31.221Z,96182.44
2023-05-09T07:20:02.333Z,96186.97
2023-05-09T07:22:36.347Z,96183.69
2023-05-09T07:25:09.923Z,96181.56
2023-05-09T07:27:41.364Z,96184.91
2023-05-09T07:30:14.021Z,96167.06
2023-05-09T07:32:43.446Z,96177.56
2023-05-09T07:35:12.781Z,96156.84
2023-05-09T07:37:40.740Z,96147.75
2023-05-09T07:40:15.520Z,96161.78
2023-05-09T07:42:50.112Z,96143.13
2023-05-09T07:45:18.820Z,96149.94
2023-05-09T07:47:53.946Z,96149.59
2023-05-09T07:50:27.708Z,96146.38
2023-05-09T07:52:57.053Z,96150.38
2023-05-09T07:55:26.130Z,96152.06
2023-05-09T07:57:55.907Z,96148.03
2023-05-09T08:00:24.144Z,96138.16
2023-05-09T08:02:54.544Z,96133.53
2023-05-09T08:05:26.188Z,96144.50
2023-05-09T08:07:52.973Z,96140.53
2023-05-09T08:10:22.368Z,96126.09
2023-05-09T08:12:51.707Z,96127.94
2023-05-09T08:15:21.248Z,96128.22
2023-05-09T08:17:50.900Z,96113.78
2023-05-09T08:20:22.616Z,96117.81
2023-05-09T08:22:51.844Z,96117.34
2023-05-09T08:25:21.811Z,96105.78
2023-05-09T08:27:52.963Z,96109.81
2023-05-09T08:30:27.263Z,96107.88
2023-05-09T08:32:58.646Z,96088.50
2023-05-09T08:35:27.756Z,96098.94
2023-05-09T08:37:57.564Z,96099.16
2023-05-09T08:40:29.166Z,96095.75
2023-05-09T08:42:58.304Z,96098.69
2023-05-09T08:45:31.172Z,96088.13
2023-05-09T08:48:03.255Z,96091.97
2023-05-09T08:50:37.282Z,96089.31
2023-05-09T08:53:12.179Z,96088.75
2023-05-09T08:55:44.634Z,96088.34
2023-05-09T08:58:19.406Z,96089.81
2023-05-09T09:00:47.341Z,96075.63
2023-05-09T09:03:19.710Z,96075.25
2023-05-09T09:05:51.502Z,96080.50
2023-05-09T09:08:18.799Z,96066.34
2023-05-09T09:10:50.590Z,96053.56
2023-05-09T09:13:18.898Z,96056.50
2023-05-09T09:15:48.776Z,96061.06
2023-05-09T09:18:24.275Z,96043.06
2023-05-09T09:21:17.245Z,96048.47
2023-05-09T09:23:48.964Z,96039.78
2023-05-09T09:26:18.614Z,96052.31
2023-05-09T09:28:45.401Z,96043.09
2023-05-09T09:31:23.599Z,96046.13
2023-05-09T09:33:54.266Z,96043.34
2023-05-09T09:36:32.787Z,96039.16
2023-05-09T09:39:07.022Z,96032.00
2023-05-09T09:41:40.621Z,96021.31
2023-05-09T09:44:19.618Z,96009.75
2023-05-09T09:46:54.222Z,96007.88
2023-05-09T09:49:26.623Z,95999.41
2023-05-09T09:51:57.623Z,95995.06
2023-05-09T09:54:34.496Z,95997.22
2023-05-09T09:57:11.749Z,95995.34
2023-05-09T09:59:43.804Z,95994.06
2023-05-09T10:02:12.529Z,95981.94
2023-05-09T10:04:45.006Z,95990.09
2023-05-09T10:07:14.623Z,95984.47
2023-05-09T10:09:44.129Z,95973.00
2023-05-09T10:12:19.811Z,95975.34
2023-05-09T10:14:48.727Z,95971.94
2023-05-09T10:17:22.820Z,95968.59
2023-05-09T10:19:53.236Z,95961.47
2023-05-09T10:22:26.337Z,95955.06
2023-05-09T10:25:06.708Z,95949.53
2023-05-09T10:27:36.312Z,95944.66
2023-05-09T10:30:15.323Z,95938.31
2023-05-09T10:32:48.774Z,95941.41
2023-05-09T10:35:17.511Z,95933.59
2023-05-09T10:37:46.839Z,95925.00
2023-05-09T10:40:16.388Z,95936.13
2023-05-09T10:42:46.065Z,95922.53
2023-05-09T10:45:13.528Z,95918.28
2023-05-09T10:47:44.611Z,95917.72
2023-05-09T10:50:13.329Z,95922.28
2023-05-09T10:53:17.153Z,95913.00
2023-05-09T10:56:06.997Z,95912.41
2023-05-09T10:58:36.499Z,95898.06
2023-05-09T11:01:10.948Z,95893.72
2023-05-09T11:03:58.217Z,95883.16
2023-05-09T11:06:44.464Z,95889.81
2023-05-09T11:09:38.315Z,95880.53
2023-05-09T11:12:07.381Z,95885.00
2023-05-09T11:14:45.967Z,95864.88
2023-05-09T11:17:17.013Z,95870.06
2023-05-09T11:19:48.356Z,95860.00
2023-05-09T11:22:24.816Z,95861.53
2023-05-09T11:25:02.525Z,95847.94
2023-05-09T11:27:41.395Z,95841.47
2023-05-09T11:30:09.663Z,95833.53
2023-05-09T11:33:06.966Z,95837.34
2023-05-09T11:35:37.026Z,95835.22
2023-05-09T11:38:06.964Z,95827.28
2023-05-09T11:40:42.306Z,95819.38
2023-05-09T11:43:09.709Z,95826.00
2023-05-09T11:45:37.297Z,95821.72
2023-05-09T11:48:11.628Z,95824.69
2023-05-09T11:50:38.451Z,95808.81
2023-05-09T11:53:12.967Z,95812.47
2023-05-09T11:55:42.309Z,95807.47
2023-05-09T11:58:11.457Z,95808.22
2023-05-09T12:00:44.550Z,95792.34
2023-05-09T12:03:14.447Z,95801.84
2023-05-09T12:05:52.722Z,95789.56
2023-05-09T12:08:28.620Z,95781.63
2023-05-09T12:11:08.445Z,95783.88
2023-05-09T12:13:44.480Z,95778.84
2023-05-09T12:16:16.987Z,95777.38
2023-05-09T12:18:53.161Z,95776.78
2023-05-09T12:21:25.067Z,95769.56
2023-05-09T12:23:58.730Z,95763.03
2023-05-09T12:26:27.998Z,95758.69
2023-05-09T12:28:57.168Z,95748.53
2023-05-09T12:31:24.172Z,95749.31
2023-05-09T12:33:51.085Z,95740.66
2023-05-09T12:36:20.163Z,95739.97
2023-05-09T12:38:54.307Z,95721.13
2023-05-09T12:41:36.940Z,95729.84
2023-05-09T12:44:10.970Z,95721.16
2023-05-09T12:46:43.933Z,95710.28
2023-05-09T12:49:25.496Z,95719.75
2023-05-09T12:51:58.767Z,95709.63
2023-05-09T12:54:29.203Z,95706.03
2023-05-09T12:56:59.095Z,95699.47
2023-05-09T12:59:33.488Z,95698.84
2023-05-09T13:02:03.418Z,95685.75
2023-05-09T13:04:34.978Z,95685.06
2023-05-09T13:07:01.833Z,95683.63
2023-05-09T13:09:31.647Z,95683.63
2023-05-09T13:12:00.712Z,95674.22
2023-05-09T13:14:30.303Z,95663.31
2023-05-09T13:17:04.037Z,95673.47
2023-05-09T13:19:31.097Z,95661.91
2023-05-09T13:22:02.677Z,95666.22
2023-05-09T13:24:32.776Z,95666.22
2023-05-09T13:27:05.983Z,95658.97
2023-05-09T13:29:37.259Z,95641.56
2023-05-09T13:32:09.620Z,95643.03
2023-05-09T13:34:38.689Z,95642.31
2023-05-09T13:37:12.739Z,95643.03
2023-05-09T13:39:39.523Z,95627.84
2023-05-09T13:42:13.741Z,95624.94
2023-05-09T13:44:42.971Z,95617.00
2023-05-09T13:47:11.294Z,95622.06
2023-05-09T13:49:40.249Z,95623.50
2023-05-09T13:52:12.197Z,95615.56
2023-05-09T13:54:44.195Z,95615.56
2023-05-09T13:57:11.352Z,95604.66
2023-05-09T13:59:45.992Z,95601.03
2023-05-09T14:02:15.210Z,95605.41
2023-05-09T14:04:44.982Z,95604.66
2023-05-09T14:07:15.010Z,95594.50
2023-05-09T14:09:44.237Z,95593.06
2023-05-09T14:12:15.368Z,95586.53
2023-05-09T14:14:49.151Z,95588.72
2023-05-09T14:17:18.483Z,95569.84
2023-05-09T14:19:47.429Z,95579.28
2023-05-09T14:22:16.535Z,95579.31
2023-05-09T14:24:45.604Z,95570.59
2023-05-09T14:27:15.064Z,95566.97
2023-05-09T14:29:46.677Z,95564.81
2023-05-09T14:32:14.733Z,95569.16
2023-05-09T14:34:49.712Z,95566.97
2023-05-09T14:37:19.556Z,95563.34
2023-05-09T14:39:51.064Z,95557.56
2023-05-09T14:42:22.627Z,95559.72
2023-05-09T14:44:51.910Z,95543.75
2023-05-09T14:47:21.303Z,95553.22
2023-05-09T14:49:50.607Z,95548.13
2023-05-09T14:52:17.921Z,95540.88
2023-05-09T14:54:44.640Z,95539.41
2023-05-09T14:57:15.924Z,95532.16
2023-05-09T14:59:43.104Z,95531.47
2023-05-09T15:02:16.822Z,95535.06
2023-05-09T15:04:46.572Z,95533.63
2023-05-09T15:07:15.604Z,95526.38
2023-05-09T15:09:44.599Z,95520.56
2023-05-09T15:12:13.712Z,95521.31
2023-05-09T15:14:43.273Z,95529.25
2023-05-09T15:17:12.800Z,95513.31
2023-05-09T15:19:44.401Z,95511.16
2023-05-09T15:22:14.433Z,95516.22
2023-05-09T15:24:44.412Z,95508.97
2023-05-09T15:27:11.270Z,95501.72
2023-05-09T15:29:42.048Z,95503.88
2023-05-09T15:32:11.364Z,95503.88
2023-05-09T15:34:42.964Z,95498.81
2023-05-09T15:37:13.213Z,95494.47
2023-05-09T15:39:45.776Z,95494.47
2023-05-09T15:42:19.317Z,95488.66
2023-05-09T15:44:48.563Z,95487.94
2023-05-09T15:47:19.943Z,95493.00
2023-05-09T15:49:48.932Z,95483.56
2023-05-09T15:52:15.738Z,95482.09
2023-05-09T15:54:47.422Z,95479.22
2023-05-09T15:57:17.772Z,95474.84
2023-05-09T15:59:46.973Z,95482.84
2023-05-09T16:02:13.779Z,95478.50
2023-05-09T16:04:47.785Z,95470.50
2023-05-09T16:07:19.679Z,95466.88
2023-05-09T16:09:56.202Z,95444.41
2023-05-09T16:12:29.224Z,95451.66
2023-05-09T16:15:00.622Z,95450.22
2023-05-09T16:17:31.778Z,95444.41
2023-05-09T16:20:01.101Z,95441.53
2023-05-09T16:22:30.462Z,95437.16
2023-05-09T16:25:08.228Z,95445.13
2023-05-09T16:27:35.282Z,95439.31
2023-05-09T16:30:10.207Z,95438.59
2023-05-09T16:32:42.642Z,95434.97
2023-05-09T16:35:16.736Z,95434.97
2023-05-09T16:37:48.160Z,95433.50
2023-05-09T16:40:21.228Z,95421.94
2023-05-09T16:42:50.292Z,95417.59
2023-05-09T16:45:25.181Z,95416.13
2023-05-09T16:47:55.850Z,95413.22
2023-05-09T16:50:28.966Z,95408.88
2023-05-09T16:52:55.808Z,95411.03
2023-05-09T16:55:27.118Z,95400.91
2023-05-09T16:58:00.974Z,95402.34
2023-05-09T17:00:28.207Z,95389.31
2023-05-09T17:02:59.651Z,95382.06
2023-05-09T17:05:34.850Z,95391.47
2023-05-09T17:08:03.831Z,95381.31
2023-05-09T17:10:39.584Z,95382.72
2023-05-09T17:13:13.040Z,95387.81
2023-05-09T17:15:43.033Z,95380.56
2023-05-09T17:18:22.074Z,95389.97
2023-05-09T17:20:58.954Z,95391.41
2023-05-09T17:23:30.638Z,95376.91
2023-05-09T17:25:59.806Z,95386.34
2023-05-09T17:28:29.223Z,95374.75
2023-05-09T17:30:59.331Z,95373.31
2023-05-09T17:33:31.636Z,95366.78
2023-05-09T17:36:01.732Z,95364.59
2023-05-09T17:38:34.256Z,95375.47
2023-05-09T17:41:04.569Z,95363.88
2023-05-09T17:43:34.440Z,95359.53
2023-05-09T17:46:01.242Z,95374.00
2023-05-09T17:48:32.953Z,95356.63
2023-05-09T17:51:04.544Z,95359.53
2023-05-09T17:53:34.337Z,95356.63
2023-05-09T17:56:06.746Z,95359.53
2023-05-09T17:58:38.188Z,95355.88
2023-05-09T18:01:07.476Z,95352.97
2023-05-09T18:03:39.448Z,95341.38
2023-05-09T18:06:08.628Z,95344.28
2023-05-09T18:08:40.721Z,95337.03
2023-05-09T18:11:15.326Z,95339.94
2023-05-09T18:13:42.153Z,95338.47
2023-05-09T18:16:15.912Z,95334.84
2023-05-09T18:18:47.340Z,95338.47
2023-05-09T18:21:14.657Z,95331.22
2023-05-09T18:23:41.670Z,95336.25
2023-05-09T18:26:13.267Z,95338.44
2023-05-09T18:28:40.052Z,95328.28
2023-05-09T18:31:09.667Z,95326.81
2023-05-09T18:33:39.762Z,95320.28
2023-05-09T18:36:15.240Z,95316.66
2023-05-09T18:38:44.757Z,95325.31
2023-05-09T18:41:12.619Z,95318.81
2023-05-09T18:43:47.468Z,95316.56
2023-05-09T18:46:18.091Z,95312.22
2023-05-09T18:48:54.407Z,95303.53
2023-05-09T18:51:28.979Z,95304.97
2023-05-09T18:54:03.373Z,95304.94
2023-05-09T18:56:39.359Z,95315.78
2023-05-09T18:59:12.088Z,95307.81
2023-05-09T19:01:42.861Z,95309.97
2023-05-09T19:04:14.267Z,95317.91
2023-05-09T19:06:44.281Z,95311.38
2023-05-09T19:09:16.125Z,95312.81
2023-05-09T19:11:47.884Z,95312.09
2023-05-09T19:14:22.928Z,95313.53
2023-05-09T19:16:54.535Z,95317.84
2023-05-09T19:19:23.682Z,95308.41
2023-05-09T19:21:52.786Z,95312.00
2023-05-09T19:24:24.737Z,95312.69
2023-05-09T19:26:53.759Z,95317.75
2023-05-09T19:29:20.528Z,95315.59
2023-05-09T19:31:49.582Z,95318.47
2023-05-09T19:34:20.927Z,95311.22
2023-05-09T19:36:52.451Z,95323.47
2023-05-09T19:39:23.984Z,95316.25
2023-05-09T19:41:53.172Z,95324.94
2023-05-09T19:44:20.076Z,95322.00
2023-05-09T19:46:49.257Z,95320.56
2023-05-09T19:49:21.066Z,95316.22
2023-05-09T19:51:55.267Z,95322.72
2023-05-09T19:54:31.299Z,95320.53
2023-05-09T19:57:06.413Z,95323.41
2023-05-09T19:59:35.549Z,95323.41
2023-05-09T20:02:02.578Z,95327.72
2023-05-09T20:04:37.843Z,95317.59
2023-05-09T20:07:10.022Z,95332.72
2023-05-09T20:09:44.854Z,95321.88
2023-05-09T20:12:13.249Z,95322.56
2023-05-09T20:14:44.859Z,95318.22
2023-05-09T20:17:16.934Z,95324.72
2023-05-09T20:19:48.784Z,95327.56
2023-05-09T20:22:15.646Z,95324.66
2023-05-09T20:24:42.482Z,95328.22
2023-05-09T20:27:11.518Z,95326.69
2023-05-09T20:29:43.171Z,95337.50
2023-05-09T20:32:14.867Z,95335.31
2023-05-09T20:34:47.122Z,95330.94
2023-05-09T20:37:18.610Z,95335.25
2023-05-09T20:39:50.857Z,95333.78
2023-05-09T20:42:20.689Z,95334.44
2023-05-09T20:44:51.675Z,95338.75
2023-05-09T20:47:20.904Z,95334.38
2023-05-09T20:49:47.749Z,95340.84
2023-05-09T20:52:16.805Z,95343.66
2023-05-09T20:54:52.944Z,95376.78
2023-05-09T20:57:19.752Z,95409.22
2023-05-09T20:59:46.644Z,95432.94
2023-05-09T21:02:13.865Z,95436.59
2023-05-09T21:04:40.784Z,95416.38
2023-05-09T21:07:07.683Z,95414.97
2023-05-09T21:09:39.377Z,95413.53
2023-05-09T21:12:11.556Z,95424.38
2023-05-09T21:14:46.101Z,95422.22
2023-05-09T21:17:15.545Z,95409.22
2023-05-09T21:19:45.824Z,95419.38
2023-05-09T21:22:15.138Z,95419.38
2023-05-09T21:24:41.955Z,95437.38
2023-05-09T21:27:08.731Z,95438.09
2023-05-09T21:29:35.579Z,95429.44
2023-05-09T21:32:06.967Z,95441.75
2023-05-09T21:34:33.787Z,95445.28
2023-05-09T21:37:02.954Z,95455.41
2023-05-09T21:39:33.579Z,95454.00
2023-05-09T21:42:00.482Z,95446.78
2023-05-09T21:44:31.648Z,95451.09
2023-05-09T21:47:01.238Z,95461.88
2023-05-09T21:49:30.560Z,95448.78
2023-05-09T21:51:57.384Z,95442.97
2023-05-09T21:54:24.228Z,95456.03
2023-05-09T21:56:51.067Z,95445.13
2023-05-09T21:59:24.972Z,95457.31
2023-05-09T22:01:56.789Z,95457.22
2023-05-09T22:04:23.674Z,95459.22
2023-05-09T22:06:55.379Z,95463.31
2023-05-09T22:09:24.952Z,95468.25
2023-05-09T22:11:53.060Z,95473.16
2023-05-09T22:14:19.896Z,95457.13
2023-05-09T22:16:46.818Z,95464.34
2023-05-09T22:19:16.051Z,95469.97
2023-05-09T22:21:45.556Z,95457.69
2023-05-09T22:24:14.782Z,95453.16
2023-05-09T22:26:46.554Z,95449.50
2023-05-09T22:29:16.631Z,95443.59
2023-05-09T22:31:46.394Z,95450.78
2023-05-09T22:34:13.236Z,95451.38
2023-05-09T22:36:41.846Z,95444.75
2023-05-09T22:39:08.701Z,95454.81
2023-05-09T22:41:37.812Z,95449.03
2023-05-09T22:44:09.793Z,95442.50
2023-05-09T22:46:38.957Z,95461.16
2023-05-09T22:49:09.089Z,95453.97
2023-05-09T22:51:40.550Z,95449.63
2023-05-09T22:54:09.898Z,95453.09
2023-05-09T22:56:36.876Z,95464.56
2023-05-09T22:59:05.883Z,95453.78
2023-05-09T23:01:32.844Z,95461.59
2023-05-09T23:04:02.007Z,95457.22
2023-05-09T23:06:28.924Z,95467.31
2023-05-09T23:08:55.714Z,95444.22
2023-05-09T23:11:25.803Z,95448.47
2023-05-09T23:13:55.133Z,95449.91
2023-05-09T23:16:24.372Z,95450.53
2023-05-09T23:18:54.218Z,95438.25
2023-05-09T23:21:21.195Z,95439.66
2023-05-09T23:23:50.229Z,95436.69
2023-05-09T23:26:19.296Z,95430.94
2023-05-09T23:28:48.220Z,95443.91
2023-05-09T23:31:15.036Z,95446.03
2023-05-09T23:33:41.905Z,95440.91
2023-05-09T23:36:11.560Z,95428.56
2023-05-09T23:38:38.442Z,95435.75
2023-05-09T23:41:05.319Z,95428.47
2023-05-09T23:43:34.789Z,95435.63
2023-05-09T23:46:02.087Z,95429.09
2023-05-09T23:48:31.616Z,95427.56
2023-05-09T23:51:00.759Z,95435.47
2023-05-09T23:53:31.569Z,95432.59
2023-05-09T23:55:58.477Z,95434.03
2023-05-09T23:58:25.231Z,95431.78
